Latest Weather Observations for Birdsville

IDQ60801

Issued at 7:02 am EST Monday 21 August 2017 (issued every 30 minutes, with the page automatically refreshed every 10 minutes)

About weather observations | Map of weather stations | Latest weather observations for QLD | Other Formats
Station Details ID: 038026 Name: BIRDSVILLE AIRPORT Lat: -25.90 Lon: 139.35 Height: 46.6 m
Data from the previous 72 hours. | See also: Recent months at Birdsville
Date/Time
EST
Temp
°C
App
Temp
°C
Dew
Point
°C
Rel
Hum
%
Delta-T
°C
Wind Press
QNH
hPa
Press
MSL
hPa
Rain since
9am
mm
Dir  Spd
km/h
Gust
km/h
Spd
kts
Gust
kts
21/07:00am 12.7 7.7 -7.9 23 7.1 NNW 11 20 6 11 1014.2 1014.2 0.0
21/06:30am 13.5 7.4 -7.8 22 7.5 NNE 17 17 9 9 1012.9 1012.9 0.0
21/06:00am 14.4 7.9 -7.6 21 7.8 NNE 19 20 10 11 1012.1 1012.1 0.0
21/05:30am 14.9 8.4 -7.8 20 8.1 NE 19 22 10 12 1011.8 1011.8 0.0
21/05:00am 15.8 9.8 -7.1 20 8.4 NE 17 20 9 11 1011.7 1011.7 0.0
21/04:30am 16.3 10.3 -6.7 20 8.5 NE 17 19 9 10 1011.9 1011.9 0.0
21/04:00am 16.4 10.8 -6.6 20 8.6 ENE 15 17 8 9 1011.9 1011.9 0.0
21/03:30am 16.7 11.5 -6.3 20 8.6 ENE 13 17 7 9 1012.0 1012.0 0.0
21/03:00am 16.8 11.5 -6.9 19 8.8 E 13 15 7 8 1012.5 1012.5 0.0
21/02:30am 16.6 12.5 -7.1 19 8.7 E 7 9 4 5 1013.0 1013.0 0.0
21/02:00am 17.6 11.0 -7.0 18 9.2 NNE 20 26 11 14 1012.3 1012.3 0.0
21/01:30am 17.8 10.8 -6.8 18 9.3 NNE 22 30 12 16 1012.3 1012.3 0.0
21/01:00am 17.4 10.8 -7.1 18 9.1 NNE 20 26 11 14 1012.6 1012.6 0.0
21/12:30am 17.5 10.9 -7.0 18 9.2 NNE 20 26 11 14 1012.7 1012.7 0.0
21/12:00am 17.0 10.4 -6.8 19 8.9 NE 20 24 11 13 1013.3 1013.3 0.0
 
Date/Time
EST
Temp
°C
App
Temp
°C
Dew
Point
°C
Rel
Hum
%
Delta-T
°C
Wind Press
QNH
hPa
Press
MSL
hPa
Rain since
9am
mm
Dir  Spd
km/h
Gust
km/h
Spd
kts
Gust
kts
20/11:30pm 16.7 10.3 -7.0 19 8.8 NE 19 22 10 12 1013.8 1013.8 0.0
20/11:00pm 17.0 10.6 -6.8 19 8.9 NE 19 22 10 12 1014.3 1014.3 0.0
20/10:30pm 17.0 10.6 -6.8 19 8.9 NE 19 22 10 12 1014.5 1014.5 0.0
20/10:00pm 17.2 11.2 -6.6 19 8.9 NE 17 20 9 11 1014.8 1014.8 0.0
20/09:30pm 18.0 12.4 -5.9 19 9.2 NE 15 19 8 10 1015.2 1015.2 0.0
20/09:00pm 17.8 12.6 -6.1 19 9.1 ENE 13 15 7 8 1015.3 1015.3 0.0
20/08:30pm 18.2 13.4 -5.8 19 9.3 ENE 11 13 6 7 1015.5 1015.5 0.0
20/08:00pm 19.3 13.7 -6.3 17 9.9 NE 15 17 8 9 1015.4 1015.4 0.0
20/07:30pm 20.3 14.7 -6.3 16 10.4 NE 15 17 8 9 1015.5 1015.5 0.0
20/07:00pm 21.1 14.7 -6.5 15 10.8 NE 19 20 10 11 1015.2 1015.2 0.0
20/06:30pm 21.8 14.8 -6.8 14 11.2 NE 22 26 12 14 1015.3 1015.3 0.0
20/06:00pm 22.3 16.0 -5.6 15 11.3 NE 19 24 10 13 1015.6 1015.6 0.0
20/05:30pm 22.7 15.9 -5.2 15 11.4 NE 22 30 12 16 1016.0 1015.9 0.0
20/05:00pm 23.0 16.1 -5.9 14 11.7 NE 22 32 12 17 1016.1 1016.0 0.0
20/04:30pm 22.9 16.0 -6.0 14 11.7 NE 22 32 12 17 1016.3 1016.2 0.0
20/04:00pm 23.3 16.5 -4.8 15 11.6 NE 22 33 12 18 1016.4 1016.3 0.0
20/03:30pm 22.6 16.2 -5.3 15 11.4 NE 20 28 11 15 1017.0 1016.9 0.0
20/03:00pm 23.3 16.9 -4.8 15 11.6 NE 20 30 11 16 1017.4 1017.3 0.0
20/02:30pm 22.3 15.9 -4.7 16 11.1 NE 20 28 11 15 1017.9 1017.8 0.0
20/02:00pm 22.6 16.3 -3.7 17 11.0 NE 20 26 11 14 1018.7 1018.6 0.0
20/01:30pm 21.7 14.7 -3.6 18 10.6 NE 24 35 13 19 1019.3 1019.2 0.0
20/01:00pm 20.8 13.4 -3.6 19 10.1 NE 26 33 14 18 1020.0 1019.9 0.0
20/12:30pm 20.5 13.5 -3.2 20 9.9 NE 24 35 13 19 1020.8 1020.7 0.0
20/12:00pm 19.8 12.2 -2.5 22 9.3 ENE 28 35 15 19 1021.2 1021.1 0.0
20/11:30am 19.0 10.5 -2.0 24 8.8 ENE 33 43 18 23 1021.5 1021.4 0.0
20/11:00am 18.0 9.1 -2.3 25 8.4 ENE 35 43 19 23 1022.4 1022.3 0.0
20/10:30am 17.6 9.2 -2.1 26 8.2 ENE 32 43 17 23 1023.0 1022.9 0.0
20/10:00am 16.3 7.9 -2.2 28 7.5 ENE 32 41 17 22 1023.6 1023.5 0.0
20/09:30am 15.0 6.6 -2.4 30 7.0 E 32 44 17 24 1023.8 1023.7 0.0
20/09:00am 14.0 7.2 -2.0 33 6.4 E 24 33 13 18 1024.1 1024.0 0.0
20/08:30am 11.8 6.3 -2.4 37 5.5 E 17 22 9 12 1024.1 1024.0 0.0
20/08:00am 9.0 4.5 -3.5 41 4.6 ESE 11 13 6 7 1023.7 1023.6 0.0
20/07:30am 6.1 2.1 -5.8 42 4.0 SE 7 9 4 5 1024.1 1024.0 0.0
20/07:00am 6.4 2.5 -4.9 44 3.8 ESE 7 9 4 5 1023.6 1023.5 0.0
20/06:30am 6.9 3.1 -5.1 42 4.1 ESE 6 7 3 4 1023.2 1023.1 0.0
20/06:00am 7.2 3.3 -4.8 42 4.1 ESE 7 9 4 5 1022.6 1022.5 0.0
20/05:30am 7.0 3.0 -5.3 41 4.2 SE 7 9 4 5 1022.1 1022.0 0.0
20/05:00am 7.0 2.7 -5.3 41 4.2 SE 9 11 5 6 1021.9 1021.8 0.0
20/04:30am 7.4 3.4 -6.0 38 4.5 S 7 9 4 5 1021.9 1021.8 0.0
20/04:00am 8.3 4.3 -5.9 36 4.8 ESE 7 11 4 6 1021.7 1021.6 0.0
20/03:30am 9.2 4.0 -5.8 34 5.2 ESE 13 17 7 9 1022.0 1021.9 0.0
20/03:00am 9.7 4.2 -5.4 34 5.3 ESE 15 17 8 9 1022.3 1022.2 0.0
20/02:30am 9.3 4.1 -5.7 34 5.2 SE 13 13 7 7 1022.8 1022.7 0.0
20/02:00am 9.6 4.5 -5.5 34 5.3 SE 13 15 7 8 1023.1 1023.0 0.0
20/01:30am 10.4 5.3 -5.2 33 5.6 SSE 13 17 7 9 1023.4 1023.3 0.0
20/01:00am 10.8 6.0 -5.6 31 5.8 SSE 11 15 6 8 1023.7 1023.6 0.0
20/12:30am 11.3 6.5 -5.6 30 6.1 SSE 11 13 6 7 1023.8 1023.7 0.0
20/12:00am 11.8 6.7 -5.6 29 6.2 SSE 13 15 7 8 1024.0 1023.9 0.0
 
Date/Time
EST
Temp
°C
App
Temp
°C
Dew
Point
°C
Rel
Hum
%
Delta-T
°C
Wind Press
QNH
hPa
Press
MSL
hPa
Rain since
9am
mm
Dir  Spd
km/h
Gust
km/h
Spd
kts
Gust
kts
19/11:30pm 12.3 7.2 -5.2 29 6.4 SSE 13 15 7 8 1024.3 1024.2 0.0
19/11:00pm 12.6 7.9 -5.4 28 6.5 SSE 11 13 6 7 1024.3 1024.2 0.0
19/10:30pm 13.5 8.4 -5.1 27 6.9 SSE 13 17 7 9 1024.4 1024.3 0.0
19/10:00pm 13.9 8.8 -5.3 26 7.1 SSE 13 15 7 8 1024.5 1024.4 0.0
19/09:30pm 14.2 9.5 -5.5 25 7.3 SSE 11 13 6 7 1024.5 1024.4 0.0
19/09:00pm 15.2 10.5 -5.2 24 7.7 SSE 11 13 6 7 1024.3 1024.2 0.0
19/08:30pm 15.4 10.3 -5.0 24 7.8 SSE 13 15 7 8 1024.2 1024.1 0.0
19/08:00pm 16.4 11.3 -4.8 23 8.2 SE 13 13 7 7 1024.1 1024.0 0.0
19/07:30pm 17.8 12.7 -4.8 21 8.9 SSE 13 15 7 8 1023.9 1023.8 0.0
19/07:00pm 18.7 13.0 -4.0 21 9.1 SSE 17 20 9 11 1023.6 1023.5 0.0
19/06:30pm 19.7 12.6 -4.5 19 9.7 SE 24 30 13 16 1023.3 1023.2 0.0
19/06:00pm 20.8 13.3 -4.4 18 10.2 SSE 26 32 14 17 1023.1 1023.0 0.0
19/05:30pm 21.4 13.5 -4.6 17 10.6 SSE 28 35 15 19 1023.0 1022.9 0.0
19/05:00pm 21.9 14.1 -4.2 17 10.8 SSE 28 35 15 19 1022.9 1022.8 0.0
19/04:30pm 22.5 15.9 -3.7 17 11.0 SSE 22 33 12 18 1022.9 1022.8 0.0
19/04:00pm 22.3 15.3 -3.9 17 10.9 SSE 24 32 13 17 1023.0 1022.9 0.0
19/03:30pm 22.5 15.6 -3.0 18 10.9 SE 24 33 13 18 1023.1 1023.0 0.0
19/03:00pm 22.1 14.8 -2.6 19 10.5 SE 26 33 14 18 1023.4 1023.3 0.0
19/02:30pm 21.6 14.5 -4.5 17 10.7 SE 24 37 13 20 1023.7 1023.6 0.0
19/02:00pm 22.2 15.4 -1.8 20 10.4 SE 24 35 13 19 1024.3 1024.2 0.0
19/01:30pm 21.4 13.9 -1.2 22 9.9 SE 28 35 15 19 1024.8 1024.7 0.0
19/01:00pm 21.1 14.1 -0.8 23 9.6 SSE 26 39 14 21 1025.3 1025.2 0.0
19/12:30pm 20.9 14.3 -0.4 24 9.4 SE 24 35 13 19 1026.0 1025.9 0.0
19/12:00pm 19.9 13.3 -0.7 25 8.9 SE 24 33 13 18 1026.5 1026.5 0.0
19/11:30am 19.2 11.9 -0.2 27 8.5 SE 28 39 15 21 1026.8 1026.8 0.0
19/11:00am 18.6 11.3 -0.2 28 8.1 ESE 28 35 15 19 1027.0 1027.0 0.0
19/10:30am 17.6 11.4 -0.6 29 7.8 SE 22 28 12 15 1027.1 1027.1 0.0
19/10:00am 15.9 9.6 -1.2 31 7.1 SE 22 28 12 15 1027.2 1027.2 0.0
19/09:30am 14.4 8.0 -1.6 33 6.5 SE 22 28 12 15 1027.2 1027.2 0.0
19/09:00am 12.6 6.7 -2.4 35 5.8 SE 19 26 10 14 1027.3 1027.3 0.0
19/08:30am 10.4 5.1 -3.3 38 5.1 SSE 15 19 8 10 1027.0 1027.0 0.0
19/08:00am 8.1 3.8 -5.0 39 4.5 S 9 11 5 6 1026.8 1026.8 0.0
19/07:30am 7.2 3.3 -4.8 42 4.2 S 7 7 4 4 1026.5 1026.5 0.0
19/07:00am 6.7 2.7 -5.3 42 4.1 S 7 9 4 5 1026.1 1026.0 0.0
19/06:30am 6.9 2.9 -5.4 41 4.2 S 7 9 4 5 1025.6 1025.5 0.0
19/06:00am 7.4 3.0 -5.6 39 4.4 S 9 11 5 6 1025.2 1025.1 0.0
19/05:30am 8.6 3.9 -4.9 38 4.8 SSE 11 13 6 7 1024.7 1024.6 0.0
19/05:00am 8.6 4.3 -5.2 37 4.8 SSE 9 11 5 6 1024.3 1024.2 0.0
19/04:30am 9.1 4.4 -5.5 35 5.1 SSE 11 13 6 7 1024.2 1024.1 0.0
19/04:00am 9.1 4.7 -5.9 34 5.2 SSE 9 11 5 6 1024.2 1024.1 0.0
19/03:30am 9.7 4.9 -5.8 33 5.4 SE 11 13 6 7 1024.1 1024.0 0.0
19/03:00am 10.5 5.3 -6.3 30 5.8 SSE 13 15 7 8 1024.0 1023.9 0.0
19/02:30am 11.0 5.7 -6.8 28 6.2 SSE 13 17 7 9 1024.2 1024.1 0.0
19/02:00am 11.9 6.3 -6.5 27 6.5 SSE 15 17 8 9 1024.2 1024.1 0.0
19/01:30am 12.2 7.0 -6.7 26 6.7 SSE 13 15 7 8 1024.5 1024.4 0.0
19/01:00am 13.0 8.2 -6.5 25 6.9 SSE 11 15 6 8 1024.6 1024.5 0.0
19/12:30am 13.4 8.2 -6.7 24 7.2 SSE 13 15 7 8 1024.6 1024.5 0.0
19/12:00am 14.7 8.3 -6.8 22 7.8 S 19 22 10 12 1024.5 1024.4 0.0
 
Date/Time
EST
Temp
°C
App
Temp
°C
Dew
Point
°C
Rel
Hum
%
Delta-T
°C
Wind Press
QNH
hPa
Press
MSL
hPa
Rain since
9am
mm
Dir  Spd
km/h
Gust
km/h
Spd
kts
Gust
kts
18/11:30pm 15.3 9.3 -6.9 21 8.1 SSE 17 20 9 11 1024.6 1024.5 0.0
18/11:00pm 15.3 9.3 -6.9 21 8.1 S 17 20 9 11 1024.7 1024.6 0.0
18/10:30pm 15.2 9.9 -7.6 20 8.2 SSE 13 17 7 9 1024.6 1024.5 0.0
18/10:00pm 15.9 9.8 -7.7 19 8.5 SSE 17 22 9 12 1024.4 1024.3 0.0
18/09:30pm 16.9 10.4 -7.5 18 9.0 S 19 24 10 13 1024.3 1024.2 0.0
18/09:00pm 17.5 11.4 -7.8 17 9.2 S 17 20 9 11 1024.1 1024.0 0.0
18/08:30pm 18.6 12.1 -7.7 16 9.8 S 19 22 10 12 1023.8 1023.7 0.0
18/08:00pm 19.2 13.5 -7.2 16 10.0 S 15 19 8 10 1023.5 1023.4 0.0
18/07:30pm 19.7 14.4 -6.8 16 10.2 S 13 17 7 9 1023.1 1023.0 0.0
18/07:00pm 20.3 14.7 -6.3 16 10.3 S 15 19 8 10 1022.7 1022.6 0.0
18/06:30pm 21.6 15.7 -6.1 15 11.0 S 17 24 9 13 1022.5 1022.4 0.0
18/06:00pm 22.6 16.1 -6.2 14 11.5 S 20 30 11 16 1022.3 1022.2 0.0
18/05:30pm 23.2 16.0 -5.7 14 11.8 S 24 30 13 16 1022.0 1021.9 0.0
18/05:00pm 23.7 16.8 -6.3 13 12.1 S 22 32 12 17 1021.8 1021.7 0.0
18/04:30pm 23.7 16.9 -5.3 14 12.0 SSE 22 28 12 15 1021.7 1021.6 0.0
18/04:00pm 23.8 16.7 -4.4 15 11.8 S 24 35 13 19 1021.7 1021.6 0.0
18/03:30pm 23.5 16.4 -4.6 15 11.7 SSE 24 37 13 20 1021.7 1021.6 0.0
18/03:00pm 23.7 16.4 -2.8 17 11.4 S 26 37 14 20 1021.7 1021.6 0.0
18/02:30pm 23.0 15.7 -2.6 18 11.0 S 26 35 14 19 1021.8 1021.7 0.0
18/02:00pm 22.9 15.0 -1.2 20 10.6 S 30 39 16 21 1022.2 1022.1 0.0
18/01:30pm 22.3 14.5 -1.1 21 10.3 S 30 41 16 22 1022.5 1022.4 0.0
18/01:00pm 22.2 14.5 0.1 23 9.9 S 30 41 16 22 1023.0 1022.9 0.0
18/12:30pm 21.7 14.1 0.8 25 9.5 SSE 30 39 16 21 1023.5 1023.4 0.0
18/12:00pm 21.1 13.0 0.9 26 9.1 S 33 44 18 24 1023.9 1023.8 0.0
18/11:30am 20.3 11.9 1.7 29 8.5 SSE 35 46 19 25 1024.2 1024.1 0.0
18/11:00am 19.7 11.8 2.1 31 8.1 SSE 33 43 18 23 1024.3 1024.2 0.0
18/10:30am 18.5 10.2 1.9 33 7.5 SSE 35 44 19 24 1024.3 1024.2 0.0
18/10:00am 17.9 9.2 2.2 35 7.1 SSE 37 48 20 26 1024.4 1024.3 0.0
18/09:30am 17.3 8.7 2.5 37 6.7 SSE 37 44 20 24 1024.0 1023.9 0.0
18/09:00am 16.6 8.7 2.2 38 6.4 SSE 33 46 18 25 1023.4 1023.3 0.0
18/08:52am 16.2 9.2 1.9 38 6.4 SSE 28 46 15 25 1023.2 1023.1 0.0
18/08:30am 15.4 8.3 1.2 38 6.2 SSE 28 35 15 19 1022.9 1022.8 0.0
18/08:00am 14.6 7.6 -0.3 36 6.2 SSE 26 33 14 18 1022.5 1022.4 0.0
18/07:30am 13.8 7.9 -0.6 37 5.9 S 20 24 11 13 1022.0 1021.9 0.0

Other Formats:

Comma delimited format used in spreadsheet applications
http://www.bom.gov.au/fwo/IDQ60801/IDQ60801.95482.axf

JavaScript Object Notation format (JSON) in row-major order
http://www.bom.gov.au/fwo/IDQ60801/IDQ60801.95482.json